Terminal Aerodrome Forecast
Issued by NWS Anchorage, AK

Home | Current Version | Previous Version | Text Only | Print | Product List | Glossary On
Versions: 1 2 3 4 5 6 7 8 9 10 11 12 13 14 15 16 17 18 19 20 21 22 23 24 25 26 27 28 29 30 31 32 33 34 35 36 37 38 39 40 41 42 43 44 45 46 47 48 49 50
000
FTAK31 PANC 250539
TAFANC
TAF
PANC 250539Z 2506/2612 VRB03KT P6SM -SHSN SCT030 BKN050
     FM251100 VRB03KT 4SM BR SCT005 BKN020
     FM251500 VRB03KT 5SM -SN BR SCT010 OVC020
     FM251800 16007KT 2SM -SN SCT008 OVC015
     FM252200 18014G22KT 6SM -SHSN SCT015 BKN030
     FM260400 17007G14KT P6SM VCSH SCT030 BKN100=

USA.gov is the U.S. government's official web portal to all federal, state and local government web resources and services.